createdAt,value
2019-02-10T00:04:03.137Z,4.07
2019-02-10T00:08:07.468Z,3.98
2019-02-10T00:12:12.110Z,3.93
2019-02-10T00:16:21.545Z,3.87
2019-02-10T00:20:25.743Z,3.81
2019-02-10T00:24:29.922Z,3.71
2019-02-10T00:28:34.131Z,3.70
2019-02-10T00:32:38.295Z,3.73
2019-02-10T00:36:43.347Z,3.77
2019-02-10T00:40:47.634Z,3.80
2019-02-10T00:44:52.476Z,3.80
2019-02-10T00:48:57.063Z,3.75
2019-02-10T00:53:01.270Z,3.69
2019-02-10T00:57:06.105Z,3.62
2019-02-10T01:01:10.340Z,3.59
2019-02-10T01:05:14.549Z,3.59
2019-02-10T01:09:19.575Z,3.61
2019-02-10T01:13:23.776Z,3.55
2019-02-10T01:17:28.005Z,3.51
2019-02-10T01:21:32.585Z,3.49
2019-02-10T01:25:36.904Z,3.53
2019-02-10T01:29:41.102Z,3.53
2019-02-10T01:33:45.677Z,3.57
2019-02-10T01:37:49.904Z,3.59
2019-02-10T01:41:54.084Z,3.59
2019-02-10T01:46:00.338Z,3.50
2019-02-10T01:50:06.475Z,3.47
2019-02-10T01:54:11.578Z,3.38
2019-02-10T01:58:15.788Z,3.29
2019-02-10T02:02:20.021Z,3.27
2019-02-10T02:06:24.256Z,3.22
2019-02-10T02:10:28.498Z,3.21
2019-02-10T02:14:32.679Z,3.19
2019-02-10T02:18:36.957Z,3.14
2019-02-10T02:22:41.178Z,3.08
2019-02-10T02:26:45.371Z,3.05
2019-02-10T02:30:49.923Z,3.05
2019-02-10T02:34:54.140Z,3.00
2019-02-10T02:38:58.320Z,2.99
2019-02-10T02:43:02.777Z,2.97
2019-02-10T02:47:06.991Z,2.93
2019-02-10T02:51:11.219Z,2.83
2019-02-10T02:55:15.470Z,2.78
2019-02-10T02:59:20.012Z,2.74
2019-02-10T03:03:24.226Z,2.72
2019-02-10T03:07:28.432Z,2.71
2019-02-10T03:11:32.650Z,2.72
2019-02-10T03:15:36.851Z,2.73
2019-02-10T03:19:41.073Z,2.70
2019-02-10T03:23:45.652Z,2.66
2019-02-10T03:27:49.829Z,2.66
2019-02-10T03:31:54.035Z,2.63
2019-02-10T03:35:58.233Z,2.64
2019-02-10T03:40:02.446Z,2.67
2019-02-10T03:44:06.695Z,2.67
2019-02-10T03:48:10.887Z,2.62
2019-02-10T03:52:15.071Z,2.61
2019-02-10T03:56:19.660Z,2.61
2019-02-10T04:00:23.859Z,2.63
2019-02-10T04:04:28.077Z,2.62
2019-02-10T04:08:32.253Z,2.58
2019-02-10T04:12:36.468Z,2.53
2019-02-10T04:16:40.685Z,2.47
2019-02-10T04:20:44.863Z,2.45
2019-02-10T04:24:49.078Z,2.42
2019-02-10T04:28:53.299Z,2.35
2019-02-10T04:32:57.453Z,2.31
2019-02-10T04:37:01.663Z,2.32
2019-02-10T04:41:05.888Z,2.35
2019-02-10T04:45:10.372Z,2.30
2019-02-10T04:49:14.568Z,2.23
2019-02-10T04:53:18.804Z,2.26
2019-02-10T04:57:23.009Z,2.32
2019-02-10T05:01:27.206Z,2.33
2019-02-10T05:05:31.418Z,2.35
2019-02-10T05:09:35.608Z,2.40
2019-02-10T05:13:39.819Z,2.40
2019-02-10T05:17:43.984Z,2.39
2019-02-10T05:21:48.236Z,2.36
2019-02-10T05:25:52.411Z,2.39
2019-02-10T05:29:56.620Z,2.37
2019-02-10T05:34:00.915Z,2.33
2019-02-10T05:38:05.205Z,2.28
2019-02-10T05:42:09.433Z,2.25
2019-02-10T05:46:13.697Z,2.19
2019-02-10T05:50:17.907Z,2.21
2019-02-10T05:54:22.095Z,2.17
2019-02-10T05:58:26.638Z,2.09
2019-02-10T06:02:34.321Z,2.08
2019-02-10T06:06:38.596Z,2.08
2019-02-10T06:10:42.744Z,2.12
2019-02-10T06:14:46.972Z,2.03
2019-02-10T06:18:51.139Z,2.00
2019-02-10T06:22:56.268Z,1.94
2019-02-10T06:27:00.570Z,1.87
2019-02-10T06:31:04.767Z,1.90
2019-02-10T06:35:10.110Z,1.87
2019-02-10T06:39:14.311Z,1.75
2019-02-10T06:43:18.518Z,1.74
2019-02-10T06:47:22.725Z,1.79
2019-02-10T06:51:26.899Z,1.79
2019-02-10T06:55:31.883Z,1.76
2019-02-10T06:59:44.896Z,1.72
2019-02-10T07:04:04.080Z,1.74
2019-02-10T07:08:08.556Z,1.71
2019-02-10T07:12:46.564Z,1.69
2019-02-10T07:17:28.905Z,1.71
2019-02-10T07:21:36.940Z,1.64
2019-02-10T07:25:49.586Z,1.62
2019-02-10T07:30:28.882Z,1.57
2019-02-10T07:35:08.333Z,1.56
2019-02-10T07:39:29.836Z,1.54
2019-02-10T07:43:50.829Z,1.45
2019-02-10T07:48:22.943Z,1.40
2019-02-10T07:52:50.565Z,1.37
2019-02-10T07:57:44.803Z,1.33
2019-02-10T08:02:36.325Z,1.34
2019-02-10T08:07:17.431Z,1.42
2019-02-10T08:12:05.545Z,1.50
2019-02-10T08:16:54.360Z,1.53
2019-02-10T08:21:49.531Z,1.57
2019-02-10T08:26:24.865Z,1.61
2019-02-10T08:30:42.280Z,1.60
2019-02-10T08:35:34.660Z,1.54
2019-02-10T08:40:10.799Z,1.51
2019-02-10T08:44:41.343Z,1.54
2019-02-10T08:49:23.458Z,1.54
2019-02-10T08:53:31.718Z,1.58
2019-02-10T08:57:35.884Z,1.57
2019-02-10T09:01:40.128Z,1.62
2019-02-10T09:05:44.330Z,1.61
2019-02-10T09:09:48.509Z,1.60
2019-02-10T09:13:52.741Z,1.60
2019-02-10T09:17:56.950Z,1.60
2019-02-10T09:22:01.160Z,1.61
2019-02-10T09:26:05.651Z,1.64
2019-02-10T09:30:11.327Z,1.69
2019-02-10T09:34:17.006Z,1.68
2019-02-10T09:38:21.285Z,1.68
2019-02-10T09:42:25.463Z,1.68
2019-02-10T09:46:29.951Z,1.69
2019-02-10T09:50:34.172Z,1.68
2019-02-10T09:54:38.407Z,1.70
2019-02-10T09:58:42.652Z,1.72
2019-02-10T10:02:46.810Z,1.74
2019-02-10T10:06:51.006Z,1.75
2019-02-10T10:10:56.555Z,1.76
2019-02-10T10:15:02.171Z,1.83
2019-02-10T10:19:06.813Z,1.90
2019-02-10T10:23:11.027Z,1.95
2019-02-10T10:27:15.239Z,2.03
2019-02-10T10:31:19.478Z,2.09
2019-02-10T10:35:23.714Z,2.13
2019-02-10T10:39:27.929Z,2.17
2019-02-10T10:43:32.175Z,2.21
2019-02-10T10:47:36.346Z,2.22
2019-02-10T10:51:40.590Z,2.26
2019-02-10T10:55:44.784Z,2.23
2019-02-10T10:59:49.008Z,2.25
2019-02-10T11:03:53.300Z,2.27
2019-02-10T11:07:57.521Z,2.31
2019-02-10T11:12:01.731Z,2.34
2019-02-10T11:16:06.034Z,2.41
2019-02-10T11:20:10.902Z,2.49
2019-02-10T11:24:15.161Z,2.50
2019-02-10T11:28:20.059Z,2.55
2019-02-10T11:32:24.386Z,2.55
2019-02-10T11:36:28.540Z,2.56
2019-02-10T11:40:33.111Z,2.55
2019-02-10T11:44:37.305Z,2.56
2019-02-10T11:48:41.526Z,2.61
2019-02-10T11:52:46.036Z,2.69
2019-02-10T11:56:50.196Z,2.74
2019-02-10T12:00:54.547Z,2.79
2019-02-10T12:04:58.709Z,2.83
2019-02-10T12:09:03.004Z,2.91
2019-02-10T12:13:07.573Z,2.96
2019-02-10T12:17:11.762Z,3.03
2019-02-10T12:21:16.265Z,3.11
2019-02-10T12:25:20.460Z,3.20
2019-02-10T12:29:24.650Z,3.33
2019-02-10T12:33:28.871Z,3.39
2019-02-10T12:37:33.091Z,3.50
2019-02-10T12:41:37.306Z,3.60
2019-02-10T12:45:41.527Z,3.71
2019-02-10T12:49:45.838Z,3.84
2019-02-10T12:53:50.327Z,3.99
2019-02-10T12:57:55.729Z,4.12
2019-02-10T13:02:01.479Z,4.25
2019-02-10T13:06:05.638Z,4.41
2019-02-10T13:10:13.104Z,4.59
2019-02-10T13:14:18.968Z,4.76
2019-02-10T13:18:23.308Z,4.98
2019-02-10T13:22:27.540Z,5.19
2019-02-10T13:26:31.695Z,5.39
2019-02-10T13:30:35.959Z,5.57
2019-02-10T13:34:51.033Z,5.73
2019-02-10T13:38:55.430Z,5.92
2019-02-10T13:43:01.058Z,6.06
2019-02-10T13:47:08.487Z,6.18
2019-02-10T13:51:13.160Z,6.32
2019-02-10T13:55:17.751Z,6.43
2019-02-10T13:59:22.070Z,6.54
2019-02-10T14:03:26.341Z,6.63
2019-02-10T14:07:31.659Z,6.70
2019-02-10T14:11:35.856Z,6.78
2019-02-10T14:15:40.759Z,6.86
2019-02-10T14:19:44.967Z,6.92
2019-02-10T14:23:49.273Z,6.98
2019-02-10T14:27:53.760Z,7.05
2019-02-10T14:31:59.016Z,7.11
2019-02-10T14:36:03.235Z,7.22
2019-02-10T14:40:07.465Z,7.26
2019-02-10T14:44:12.197Z,7.33
2019-02-10T14:48:17.143Z,7.41
2019-02-10T14:52:21.364Z,7.44
2019-02-10T14:56:25.558Z,7.49
2019-02-10T15:00:30.947Z,7.52
2019-02-10T15:04:37.019Z,7.58
2019-02-10T15:08:41.228Z,7.63
2019-02-10T15:12:47.464Z,7.66
2019-02-10T15:16:53.989Z,7.69
2019-02-10T15:20:58.202Z,7.68
2019-02-10T15:25:02.461Z,7.66
2019-02-10T15:29:06.681Z,7.68
2019-02-10T15:33:10.880Z,7.64
2019-02-10T15:37:15.106Z,7.67
2019-02-10T15:41:19.333Z,7.69
2019-02-10T15:45:23.571Z,7.70
2019-02-10T15:49:28.865Z,7.71
2019-02-10T15:53:33.078Z,7.73
2019-02-10T15:57:37.287Z,7.74
2019-02-10T16:01:41.513Z,7.73
2019-02-10T16:05:45.789Z,7.73
2019-02-10T16:09:49.955Z,7.69
2019-02-10T16:13:54.174Z,7.58
2019-02-10T16:17:58.474Z,7.51
2019-02-10T16:22:02.681Z,7.40
2019-02-10T16:26:06.871Z,7.28
2019-02-10T16:30:12.402Z,7.15
2019-02-10T16:34:16.623Z,7.06
2019-02-10T16:38:20.893Z,7.02
2019-02-10T16:42:25.122Z,6.92
2019-02-10T16:46:29.395Z,6.77
2019-02-10T16:50:33.737Z,6.57
2019-02-10T16:54:37.954Z,6.50
2019-02-10T16:58:42.168Z,6.47
2019-02-10T17:02:46.415Z,6.47
2019-02-10T17:06:51.010Z,6.41
2019-02-10T17:10:55.346Z,6.30
2019-02-10T17:14:59.768Z,6.19
2019-02-10T17:19:03.971Z,6.08
2019-02-10T17:23:08.164Z,6.06
2019-02-10T17:27:12.346Z,6.03
2019-02-10T17:31:16.546Z,6.00
2019-02-10T17:35:20.755Z,6.00
2019-02-10T17:39:25.488Z,5.99
2019-02-10T17:43:29.707Z,6.01
2019-02-10T17:47:33.871Z,5.96
2019-02-10T17:51:38.116Z,5.95
2019-02-10T17:55:42.368Z,5.98
2019-02-10T17:59:46.572Z,6.01
2019-02-10T18:03:50.817Z,6.00
2019-02-10T18:07:54.979Z,5.91
2019-02-10T18:11:59.220Z,5.82
2019-02-10T18:16:31.848Z,5.77
2019-02-10T18:20:53.616Z,5.78
2019-02-10T18:25:26.045Z,5.78
2019-02-10T18:29:48.527Z,5.68
2019-02-10T18:34:07.233Z,5.60
2019-02-10T18:38:32.977Z,5.50
2019-02-10T18:42:47.167Z,5.42
2019-02-10T18:47:22.366Z,5.38
2019-02-10T18:51:32.081Z,5.39
2019-02-10T18:55:50.040Z,5.40
2019-02-10T19:00:11.860Z,5.38
2019-02-10T19:04:34.286Z,5.35
2019-02-10T19:08:50.345Z,5.35
2019-02-10T19:13:04.705Z,5.39
2019-02-10T19:17:27.838Z,5.41
2019-02-10T19:21:40.628Z,5.45
2019-02-10T19:26:12.658Z,5.48
2019-02-10T19:30:27.557Z,5.47
2019-02-10T19:34:54.698Z,5.35
2019-02-10T19:39:10.555Z,5.26
2019-02-10T19:43:32.696Z,5.16
2019-02-10T19:47:55.847Z,5.18
2019-02-10T19:52:24.847Z,5.13
2019-02-10T19:56:39.590Z,5.05
2019-02-10T20:01:09.046Z,4.95
2019-02-10T20:05:25.630Z,4.89
2019-02-10T20:09:47.520Z,4.89
2019-02-10T20:13:59.732Z,4.89
2019-02-10T20:18:25.921Z,4.98
2019-02-10T20:28:07.617Z,5.16
2019-02-10T20:32:18.376Z,5.08
2019-02-10T20:36:38.382Z,5.06
2019-02-10T20:41:09.029Z,5.05
2019-02-10T20:45:33.449Z,5.09
2019-02-10T20:49:56.703Z,5.11
2019-02-10T20:54:33.091Z,5.07
2019-02-10T20:59:02.428Z,5.11
2019-02-10T21:03:27.825Z,5.09
2019-02-10T21:07:49.648Z,5.11
2019-02-10T21:12:08.828Z,5.13
2019-02-10T21:16:35.025Z,5.16
2019-02-10T21:20:54.766Z,5.13
2019-02-10T21:25:15.139Z,5.06
2019-02-10T21:29:53.547Z,5.04
2019-02-10T21:34:03.723Z,5.03
2019-02-10T21:38:30.287Z,5.05
2019-02-10T21:42:42.706Z,5.05
2019-02-10T21:47:15.203Z,5.05
2019-02-10T21:51:19.535Z,5.04
2019-02-10T21:55:23.766Z,5.03
2019-02-10T21:59:28.705Z,5.03
2019-02-10T22:03:33.167Z,5.05
2019-02-10T22:07:37.507Z,5.09
2019-02-10T22:11:41.857Z,5.14
2019-02-10T22:15:46.108Z,5.16
2019-02-10T22:19:50.368Z,5.16
2019-02-10T22:23:54.590Z,5.14
2019-02-10T22:27:58.852Z,5.10
2019-02-10T22:32:03.385Z,5.09
2019-02-10T22:36:07.690Z,5.11
2019-02-10T22:40:12.279Z,5.11
2019-02-10T22:44:16.564Z,5.11
2019-02-10T22:48:20.789Z,5.15
2019-02-10T22:52:24.977Z,5.18
2019-02-10T22:56:29.233Z,5.23
2019-02-10T23:00:53.378Z,5.26
2019-02-10T23:04:58.736Z,5.29
2019-02-10T23:09:05.003Z,5.32
2019-02-10T23:13:09.244Z,5.34
2019-02-10T23:17:13.803Z,5.43
2019-02-10T23:21:18.387Z,5.54
2019-02-10T23:25:22.558Z,5.64
2019-02-10T23:29:26.763Z,5.74
2019-02-10T23:33:30.975Z,5.84
2019-02-10T23:37:36.085Z,5.92
2019-02-10T23:41:40.325Z,5.96
2019-02-10T23:45:44.547Z,6.00
2019-02-10T23:49:48.748Z,6.08
2019-02-10T23:53:52.993Z,6.17
2019-02-10T23:57:57.214Z,6.22
